This is the latest recevied weather packets stored in our database for station/object KR4ELZ. If no packets are shown the sender has not sent any weather packets the latest 10 day(s).
| Time | Temp. | Humidity | Pressure | Rain* | Wind** | Luminosity | Snow |
|---|---|---|---|---|---|---|---|
| 1777925704 | 27.22° C | 40% | 1011.5 hPa | 0 mm | - | 548 W/m² | - |
| 1777925402 | 27.22° C | 41% | 1011.3 hPa | 0 mm | - | 520 W/m² | - |
| 1777925098 | 27.22° C | 39% | 1011.6 hPa | 0 mm | - | 535 W/m² | - |
| 1777924795 | 27.22° C | 39% | 1011.6 hPa | 0 mm | - | 548 W/m² | - |
| 1777924491 | 27.22° C | 38% | 1011.6 hPa | 0 mm | - | 394 W/m² | - |
| 1777924188 | 27.22° C | 40% | 1011.6 hPa | 0 mm | - | 575 W/m² | - |
| 1777923884 | 27.78° C | 39% | 1011.5 hPa | 0 mm | - | 520 W/m² | - |
| 1777923580 | 27.22° C | 39% | 1011.8 hPa | 0 mm | - | 598 W/m² | - |
| 1777923277 | 27.22° C | 40% | 1011.7 hPa | 0 mm | - | 608 W/m² | - |
| 1777922976 | 26.11° C | 41% | 1012 hPa | 0 mm | - | 382 W/m² | - |
| 1777922673 | 26.67° C | 40% | 1011.9 hPa | 0 mm | - | 322 W/m² | - |
| 1777922372 | 27.22° C | 39% | 1012.1 hPa | 0 mm | - | 575 W/m² | - |
| 1777922069 | 27.22° C | 40% | 1012.1 hPa | 0 mm | - | 641 W/m² | - |
| 1777921764 | 27.22° C | 41% | 1012 hPa | 0 mm | - | 653 W/m² | - |
| 1777921460 | 26.67° C | 44% | 1012.2 hPa | 0 mm | - | 639 W/m² | - |
| 1777921157 | 26.11° C | 44% | 1012.3 hPa | 0 mm | - | 654 W/m² | - |
| 1777920854 | 26.11° C | 45% | 1012.2 hPa | 0 mm | - | 269 W/m² | - |
| 1777920550 | 26.67° C | 45% | 1012.3 hPa | 0 mm | - | 199 W/m² | - |
| 1777920246 | 26.67° C | 44% | 1012.3 hPa | 0 mm | - | 265 W/m² | - |
| 1777919942 | 26.67° C | 43% | 1012.2 hPa | 0 mm | - | 147 W/m² | - |
| 1777919640 | 26.11° C | 45% | 1012.2 hPa | 0 mm | - | 194 W/m² | - |
| 1777919337 | 26.67° C | 43% | 1012.4 hPa | 0 mm | - | 109 W/m² | - |
| 1777919034 | 26.67° C | 43% | 1012.4 hPa | 0 mm | - | 63 W/m² | - |
| 1777918731 | 25.56° C | 45% | 1012.2 hPa | 0 mm | - | 61 W/m² | - |
| 1777918428 | 26.11° C | 44% | 1012.4 hPa | 0 mm | - | 59 W/m² | - |
* Rain latest hour (hover to see other rain measurements)
** Current wind speed in m/s (hover to see current wind gust speed)